sensor_id;sensor_type;location;lat;lon;timestamp;P1;durP1;ratioP1;P2;durP2;ratioP2
56051;SDS011;41919;42.648;23.384;2023-04-25T00:00:49;4.85;;;2.83;;
56051;SDS011;41919;42.648;23.384;2023-04-25T00:03:17;3.67;;;2.30;;
56051;SDS011;41919;42.648;23.384;2023-04-25T00:05:43;5.45;;;2.60;;
56051;SDS011;41919;42.648;23.384;2023-04-25T00:08:09;3.70;;;2.25;;
56051;SDS011;41919;42.648;23.384;2023-04-25T00:10:34;2.88;;;2.08;;
56051;SDS011;41919;42.648;23.384;2023-04-25T00:12:59;5.88;;;2.55;;
56051;SDS011;41919;42.648;23.384;2023-04-25T00:15:28;2.53;;;2.25;;
56051;SDS011;41919;42.648;23.384;2023-04-25T00:17:55;5.20;;;2.90;;
56051;SDS011;41919;42.648;23.384;2023-04-25T00:20:21;3.72;;;2.53;;
56051;SDS011;41919;42.648;23.384;2023-04-25T00:22:48;4.50;;;2.50;;
56051;SDS011;41919;42.648;23.384;2023-04-25T00:25:14;5.28;;;2.63;;
56051;SDS011;41919;42.648;23.384;2023-04-25T00:27:40;5.07;;;3.05;;
56051;SDS011;41919;42.648;23.384;2023-04-25T00:30:06;4.55;;;3.08;;
56051;SDS011;41919;42.648;23.384;2023-04-25T00:32:33;4.13;;;3.13;;
56051;SDS011;41919;42.648;23.384;2023-04-25T00:34:58;4.47;;;3.13;;
56051;SDS011;41919;42.648;23.384;2023-04-25T00:37:24;3.50;;;2.85;;
56051;SDS011;41919;42.648;23.384;2023-04-25T00:39:50;5.85;;;3.35;;
56051;SDS011;41919;42.648;23.384;2023-04-25T00:42:16;3.97;;;3.03;;
56051;SDS011;41919;42.648;23.384;2023-04-25T00:44:41;5.50;;;3.55;;
56051;SDS011;41919;42.648;23.384;2023-04-25T00:47:08;5.03;;;3.55;;
56051;SDS011;41919;42.648;23.384;2023-04-25T00:49:33;5.18;;;3.60;;
56051;SDS011;41919;42.648;23.384;2023-04-25T00:51:59;4.97;;;3.10;;
56051;SDS011;41919;42.648;23.384;2023-04-25T00:54:25;4.85;;;3.65;;
56051;SDS011;41919;42.648;23.384;2023-04-25T00:56:50;4.68;;;2.97;;
56051;SDS011;41919;42.648;23.384;2023-04-25T00:59:16;4.13;;;2.97;;
56051;SDS011;41919;42.648;23.384;2023-04-25T01:01:43;4.45;;;2.90;;
56051;SDS011;41919;42.648;23.384;2023-04-25T01:04:09;5.00;;;3.17;;
56051;SDS011;41919;42.648;23.384;2023-04-25T01:06:35;4.88;;;2.88;;
56051;SDS011;41919;42.648;23.384;2023-04-25T01:09:00;5.05;;;2.88;;
56051;SDS011;41919;42.648;23.384;2023-04-25T01:11:27;3.67;;;2.65;;
56051;SDS011;41919;42.648;23.384;2023-04-25T01:13:53;4.57;;;2.90;;
56051;SDS011;41919;42.648;23.384;2023-04-25T01:16:18;4.05;;;2.95;;
56051;SDS011;41919;42.648;23.384;2023-04-25T01:18:44;3.47;;;2.88;;
56051;SDS011;41919;42.648;23.384;2023-04-25T01:21:10;3.63;;;2.63;;
56051;SDS011;41919;42.648;23.384;2023-04-25T01:23:38;3.28;;;2.60;;
56051;SDS011;41919;42.648;23.384;2023-04-25T01:26:05;4.47;;;3.05;;
56051;SDS011;41919;42.648;23.384;2023-04-25T01:28:31;3.78;;;2.60;;
56051;SDS011;41919;42.648;23.384;2023-04-25T01:30:58;4.75;;;2.50;;
56051;SDS011;41919;42.648;23.384;2023-04-25T01:33:24;4.13;;;3.20;;
56051;SDS011;41919;42.648;23.384;2023-04-25T01:35:50;4.40;;;2.60;;
56051;SDS011;41919;42.648;23.384;2023-04-25T01:38:15;2.38;;;1.95;;
56051;SDS011;41919;42.648;23.384;2023-04-25T01:40:41;3.92;;;2.55;;
56051;SDS011;41919;42.648;23.384;2023-04-25T01:43:07;4.30;;;2.40;;
56051;SDS011;41919;42.648;23.384;2023-04-25T01:45:36;2.78;;;2.53;;
56051;SDS011;41919;42.648;23.384;2023-04-25T01:48:05;3.65;;;2.67;;
56051;SDS011;41919;42.648;23.384;2023-04-25T01:50:30;4.28;;;2.60;;
56051;SDS011;41919;42.648;23.384;2023-04-25T01:52:56;2.80;;;2.50;;
56051;SDS011;41919;42.648;23.384;2023-04-25T01:55:22;3.95;;;2.70;;
56051;SDS011;41919;42.648;23.384;2023-04-25T01:57:47;4.13;;;2.50;;
56051;SDS011;41919;42.648;23.384;2023-04-25T02:00:12;3.63;;;2.50;;
56051;SDS011;41919;42.648;23.384;2023-04-25T02:02:38;4.38;;;2.33;;
56051;SDS011;41919;42.648;23.384;2023-04-25T02:05:04;3.63;;;2.90;;
56051;SDS011;41919;42.648;23.384;2023-04-25T02:07:30;4.72;;;2.90;;
56051;SDS011;41919;42.648;23.384;2023-04-25T02:09:55;4.50;;;3.40;;
56051;SDS011;41919;42.648;23.384;2023-04-25T02:12:21;6.60;;;3.60;;
56051;SDS011;41919;42.648;23.384;2023-04-25T02:14:46;4.75;;;3.30;;
56051;SDS011;41919;42.648;23.384;2023-04-25T02:17:12;5.93;;;3.85;;
56051;SDS011;41919;42.648;23.384;2023-04-25T02:19:37;5.47;;;3.45;;
56051;SDS011;41919;42.648;23.384;2023-04-25T02:22:03;5.13;;;3.50;;
56051;SDS011;41919;42.648;23.384;2023-04-25T02:24:28;3.85;;;3.25;;
56051;SDS011;41919;42.648;23.384;2023-04-25T02:26:54;4.65;;;3.47;;
56051;SDS011;41919;42.648;23.384;2023-04-25T02:29:21;5.45;;;3.63;;
56051;SDS011;41919;42.648;23.384;2023-04-25T02:31:46;4.65;;;3.70;;
56051;SDS011;41919;42.648;23.384;2023-04-25T02:34:12;5.25;;;3.50;;
56051;SDS011;41919;42.648;23.384;2023-04-25T02:36:37;4.40;;;3.70;;
56051;SDS011;41919;42.648;23.384;2023-04-25T02:39:03;4.50;;;3.35;;
56051;SDS011;41919;42.648;23.384;2023-04-25T02:41:28;3.25;;;2.72;;
56051;SDS011;41919;42.648;23.384;2023-04-25T02:43:53;3.33;;;2.60;;
56051;SDS011;41919;42.648;23.384;2023-04-25T02:46:19;3.03;;;2.72;;
56051;SDS011;41919;42.648;23.384;2023-04-25T02:48:45;4.60;;;2.72;;
56051;SDS011;41919;42.648;23.384;2023-04-25T02:51:10;3.35;;;2.78;;
56051;SDS011;41919;42.648;23.384;2023-04-25T02:53:36;4.32;;;3.10;;
56051;SDS011;41919;42.648;23.384;2023-04-25T02:56:01;4.50;;;3.20;;
56051;SDS011;41919;42.648;23.384;2023-04-25T02:58:27;4.07;;;3.20;;
56051;SDS011;41919;42.648;23.384;2023-04-25T03:00:52;5.45;;;3.53;;
56051;SDS011;41919;42.648;23.384;2023-04-25T03:03:18;6.00;;;3.65;;
56051;SDS011;41919;42.648;23.384;2023-04-25T03:05:46;6.07;;;4.30;;
56051;SDS011;41919;42.648;23.384;2023-04-25T03:08:12;4.90;;;3.60;;
56051;SDS011;41919;42.648;23.384;2023-04-25T03:10:38;5.20;;;3.38;;
56051;SDS011;41919;42.648;23.384;2023-04-25T03:13:04;5.43;;;3.78;;
56051;SDS011;41919;42.648;23.384;2023-04-25T03:15:29;6.10;;;3.50;;
56051;SDS011;41919;42.648;23.384;2023-04-25T03:17:56;7.07;;;4.35;;
56051;SDS011;41919;42.648;23.384;2023-04-25T03:20:21;4.90;;;4.03;;
56051;SDS011;41919;42.648;23.384;2023-04-25T03:22:47;7.72;;;4.35;;
56051;SDS011;41919;42.648;23.384;2023-04-25T03:25:12;7.55;;;5.05;;
56051;SDS011;41919;42.648;23.384;2023-04-25T03:27:38;7.88;;;4.80;;
56051;SDS011;41919;42.648;23.384;2023-04-25T03:30:03;6.45;;;4.47;;
56051;SDS011;41919;42.648;23.384;2023-04-25T03:32:29;5.97;;;4.22;;
56051;SDS011;41919;42.648;23.384;2023-04-25T03:34:55;6.72;;;4.13;;
56051;SDS011;41919;42.648;23.384;2023-04-25T03:37:20;6.85;;;4.50;;
56051;SDS011;41919;42.648;23.384;2023-04-25T03:39:46;6.80;;;4.80;;
56051;SDS011;41919;42.648;23.384;2023-04-25T03:42:11;8.77;;;4.60;;
56051;SDS011;41919;42.648;23.384;2023-04-25T03:44:37;6.43;;;4.50;;
56051;SDS011;41919;42.648;23.384;2023-04-25T03:47:02;8.75;;;4.75;;
56051;SDS011;41919;42.648;23.384;2023-04-25T03:49:28;6.25;;;4.82;;
56051;SDS011;41919;42.648;23.384;2023-04-25T03:51:53;8.13;;;5.30;;
56051;SDS011;41919;42.648;23.384;2023-04-25T03:54:18;7.30;;;4.97;;
56051;SDS011;41919;42.648;23.384;2023-04-25T03:56:44;9.13;;;5.63;;
56051;SDS011;41919;42.648;23.384;2023-04-25T03:59:09;8.57;;;5.55;;
56051;SDS011;41919;42.648;23.384;2023-04-25T04:01:35;12.88;;;4.90;;
56051;SDS011;41919;42.648;23.384;2023-04-25T04:04:00;9.48;;;5.70;;
56051;SDS011;41919;42.648;23.384;2023-04-25T04:06:26;8.55;;;5.10;;
56051;SDS011;41919;42.648;23.384;2023-04-25T04:08:51;7.13;;;4.85;;
56051;SDS011;41919;42.648;23.384;2023-04-25T04:11:17;8.57;;;5.05;;
56051;SDS011;41919;42.648;23.384;2023-04-25T04:13:42;7.22;;;5.40;;
56051;SDS011;41919;42.648;23.384;2023-04-25T04:16:08;7.45;;;5.00;;
56051;SDS011;41919;42.648;23.384;2023-04-25T04:18:33;8.70;;;5.45;;
56051;SDS011;41919;42.648;23.384;2023-04-25T04:20:59;10.55;;;4.88;;
56051;SDS011;41919;42.648;23.384;2023-04-25T04:23:24;6.90;;;5.20;;
56051;SDS011;41919;42.648;23.384;2023-04-25T04:25:52;5.25;;;4.28;;
56051;SDS011;41919;42.648;23.384;2023-04-25T04:28:19;6.70;;;4.60;;
56051;SDS011;41919;42.648;23.384;2023-04-25T04:30:45;6.60;;;5.22;;
56051;SDS011;41919;42.648;23.384;2023-04-25T04:33:11;10.07;;;5.20;;
56051;SDS011;41919;42.648;23.384;2023-04-25T04:35:37;8.23;;;5.38;;
56051;SDS011;41919;42.648;23.384;2023-04-25T04:38:02;7.78;;;5.53;;
56051;SDS011;41919;42.648;23.384;2023-04-25T04:40:28;10.35;;;6.30;;
56051;SDS011;41919;42.648;23.384;2023-04-25T04:42:55;9.00;;;5.88;;
56051;SDS011;41919;42.648;23.384;2023-04-25T04:45:22;11.30;;;6.35;;
56051;SDS011;41919;42.648;23.384;2023-04-25T04:47:48;11.05;;;6.05;;
56051;SDS011;41919;42.648;23.384;2023-04-25T04:50:14;7.60;;;5.47;;
56051;SDS011;41919;42.648;23.384;2023-04-25T04:52:41;8.35;;;5.47;;
56051;SDS011;41919;42.648;23.384;2023-04-25T04:55:07;7.97;;;5.20;;
56051;SDS011;41919;42.648;23.384;2023-04-25T04:57:33;9.95;;;5.25;;
56051;SDS011;41919;42.648;23.384;2023-04-25T04:59:59;7.60;;;5.18;;
56051;SDS011;41919;42.648;23.384;2023-04-25T05:02:26;5.88;;;5.00;;
56051;SDS011;41919;42.648;23.384;2023-04-25T05:04:51;6.10;;;4.90;;
56051;SDS011;41919;42.648;23.384;2023-04-25T05:07:17;6.38;;;4.68;;
56051;SDS011;41919;42.648;23.384;2023-04-25T05:09:43;7.00;;;4.07;;
56051;SDS011;41919;42.648;23.384;2023-04-25T05:12:09;4.82;;;3.95;;
56051;SDS011;41919;42.648;23.384;2023-04-25T05:14:35;9.18;;;5.55;;
56051;SDS011;41919;42.648;23.384;2023-04-25T05:17:00;7.60;;;5.93;;
56051;SDS011;41919;42.648;23.384;2023-04-25T05:19:26;9.63;;;6.50;;
56051;SDS011;41919;42.648;23.384;2023-04-25T05:21:51;7.85;;;5.50;;
56051;SDS011;41919;42.648;23.384;2023-04-25T05:24:17;6.47;;;4.85;;
56051;SDS011;41919;42.648;23.384;2023-04-25T05:26:42;6.95;;;5.25;;
56051;SDS011;41919;42.648;23.384;2023-04-25T05:29:08;8.20;;;5.95;;
56051;SDS011;41919;42.648;23.384;2023-04-25T05:31:33;8.23;;;5.25;;
56051;SDS011;41919;42.648;23.384;2023-04-25T05:33:59;6.13;;;4.53;;
56051;SDS011;41919;42.648;23.384;2023-04-25T05:36:24;7.82;;;5.40;;
56051;SDS011;41919;42.648;23.384;2023-04-25T05:38:50;6.60;;;5.28;;
56051;SDS011;41919;42.648;23.384;2023-04-25T05:41:16;6.45;;;4.95;;
56051;SDS011;41919;42.648;23.384;2023-04-25T05:43:41;10.43;;;5.63;;
56051;SDS011;41919;42.648;23.384;2023-04-25T05:46:12;7.65;;;4.85;;
56051;SDS011;41919;42.648;23.384;2023-04-25T05:48:37;6.07;;;5.10;;
56051;SDS011;41919;42.648;23.384;2023-04-25T05:51:03;6.70;;;4.63;;
56051;SDS011;41919;42.648;23.384;2023-04-25T05:53:29;7.03;;;4.60;;
56051;SDS011;41919;42.648;23.384;2023-04-25T05:55:54;7.05;;;5.10;;
56051;SDS011;41919;42.648;23.384;2023-04-25T05:58:20;6.80;;;5.20;;
56051;SDS011;41919;42.648;23.384;2023-04-25T06:00:45;6.28;;;4.95;;
56051;SDS011;41919;42.648;23.384;2023-04-25T06:03:11;6.72;;;4.85;;
56051;SDS011;41919;42.648;23.384;2023-04-25T06:05:39;6.43;;;4.57;;
56051;SDS011;41919;42.648;23.384;2023-04-25T06:08:06;6.65;;;4.97;;
56051;SDS011;41919;42.648;23.384;2023-04-25T06:10:31;7.40;;;4.75;;
56051;SDS011;41919;42.648;23.384;2023-04-25T06:12:56;6.82;;;4.05;;
56051;SDS011;41919;42.648;23.384;2023-04-25T06:15:22;5.43;;;4.32;;
56051;SDS011;41919;42.648;23.384;2023-04-25T06:17:47;7.10;;;4.05;;
56051;SDS011;41919;42.648;23.384;2023-04-25T06:20:14;4.47;;;3.67;;
56051;SDS011;41919;42.648;23.384;2023-04-25T06:22:39;7.95;;;3.88;;
56051;SDS011;41919;42.648;23.384;2023-04-25T06:25:05;6.57;;;4.35;;
56051;SDS011;41919;42.648;23.384;2023-04-25T06:27:32;8.88;;;3.95;;
56051;SDS011;41919;42.648;23.384;2023-04-25T06:29:58;4.85;;;3.72;;
56051;SDS011;41919;42.648;23.384;2023-04-25T06:32:23;6.55;;;4.30;;
56051;SDS011;41919;42.648;23.384;2023-04-25T06:34:48;5.50;;;3.78;;
56051;SDS011;41919;42.648;23.384;2023-04-25T06:37:14;5.18;;;3.92;;
56051;SDS011;41919;42.648;23.384;2023-04-25T06:39:39;5.45;;;4.25;;
56051;SDS011;41919;42.648;23.384;2023-04-25T06:42:05;5.82;;;3.80;;
56051;SDS011;41919;42.648;23.384;2023-04-25T06:44:30;6.65;;;4.43;;
56051;SDS011;41919;42.648;23.384;2023-04-25T06:46:56;5.57;;;3.83;;
56051;SDS011;41919;42.648;23.384;2023-04-25T06:49:21;5.30;;;4.50;;
56051;SDS011;41919;42.648;23.384;2023-04-25T06:51:47;6.63;;;4.07;;
56051;SDS011;41919;42.648;23.384;2023-04-25T06:54:12;4.60;;;3.22;;
56051;SDS011;41919;42.648;23.384;2023-04-25T06:56:38;3.83;;;3.30;;
56051;SDS011;41919;42.648;23.384;2023-04-25T06:59:03;4.43;;;3.40;;
56051;SDS011;41919;42.648;23.384;2023-04-25T07:01:29;4.60;;;2.92;;
56051;SDS011;41919;42.648;23.384;2023-04-25T07:03:55;4.18;;;2.38;;
56051;SDS011;41919;42.648;23.384;2023-04-25T07:06:20;2.90;;;2.60;;
56051;SDS011;41919;42.648;23.384;2023-04-25T07:08:46;5.78;;;3.33;;
56051;SDS011;41919;42.648;23.384;2023-04-25T07:11:11;4.70;;;3.83;;
56051;SDS011;41919;42.648;23.384;2023-04-25T07:13:37;3.38;;;3.08;;
56051;SDS011;41919;42.648;23.384;2023-04-25T07:16:02;3.95;;;3.38;;
56051;SDS011;41919;42.648;23.384;2023-04-25T07:18:28;4.43;;;3.63;;
56051;SDS011;41919;42.648;23.384;2023-04-25T07:20:53;4.55;;;3.70;;
56051;SDS011;41919;42.648;23.384;2023-04-25T07:23:19;4.13;;;3.72;;
56051;SDS011;41919;42.648;23.384;2023-04-25T07:25:45;7.55;;;4.40;;
56051;SDS011;41919;42.648;23.384;2023-04-25T07:28:11;6.15;;;3.88;;
56051;SDS011;41919;42.648;23.384;2023-04-25T07:30:36;6.68;;;4.10;;
56051;SDS011;41919;42.648;23.384;2023-04-25T07:33:02;6.85;;;4.22;;
56051;SDS011;41919;42.648;23.384;2023-04-25T07:35:27;4.82;;;3.70;;
56051;SDS011;41919;42.648;23.384;2023-04-25T07:37:53;5.45;;;4.03;;
56051;SDS011;41919;42.648;23.384;2023-04-25T07:40:18;6.82;;;3.65;;
56051;SDS011;41919;42.648;23.384;2023-04-25T07:42:44;5.38;;;3.60;;
56051;SDS011;41919;42.648;23.384;2023-04-25T07:45:09;10.70;;;4.18;;
56051;SDS011;41919;42.648;23.384;2023-04-25T07:47:35;6.75;;;4.60;;
56051;SDS011;41919;42.648;23.384;2023-04-25T07:50:01;5.97;;;3.90;;
56051;SDS011;41919;42.648;23.384;2023-04-25T07:52:28;6.03;;;4.15;;
56051;SDS011;41919;42.648;23.384;2023-04-25T07:54:53;7.13;;;3.83;;
56051;SDS011;41919;42.648;23.384;2023-04-25T07:57:19;5.63;;;4.00;;
56051;SDS011;41919;42.648;23.384;2023-04-25T07:59:45;4.72;;;3.50;;
56051;SDS011;41919;42.648;23.384;2023-04-25T08:02:10;4.10;;;3.40;;
56051;SDS011;41919;42.648;23.384;2023-04-25T08:04:36;7.03;;;3.78;;
56051;SDS011;41919;42.648;23.384;2023-04-25T08:07:01;7.88;;;4.03;;
56051;SDS011;41919;42.648;23.384;2023-04-25T08:09:27;7.03;;;4.00;;
56051;SDS011;41919;42.648;23.384;2023-04-25T08:11:53;5.35;;;4.00;;
56051;SDS011;41919;42.648;23.384;2023-04-25T08:14:18;3.83;;;3.03;;
56051;SDS011;41919;42.648;23.384;2023-04-25T08:16:44;3.38;;;3.03;;
56051;SDS011;41919;42.648;23.384;2023-04-25T08:19:10;7.72;;;3.72;;
56051;SDS011;41919;42.648;23.384;2023-04-25T08:21:36;8.18;;;3.80;;
56051;SDS011;41919;42.648;23.384;2023-04-25T08:24:01;10.07;;;3.67;;
56051;SDS011;41919;42.648;23.384;2023-04-25T08:26:27;8.18;;;3.65;;
56051;SDS011;41919;42.648;23.384;2023-04-25T08:28:53;4.97;;;3.53;;
56051;SDS011;41919;42.648;23.384;2023-04-25T08:31:19;6.40;;;3.47;;
56051;SDS011;41919;42.648;23.384;2023-04-25T08:33:44;5.63;;;4.18;;
56051;SDS011;41919;42.648;23.384;2023-04-25T08:36:10;4.93;;;3.72;;
56051;SDS011;41919;42.648;23.384;2023-04-25T08:38:35;4.72;;;3.60;;
56051;SDS011;41919;42.648;23.384;2023-04-25T08:41:01;5.25;;;4.43;;
56051;SDS011;41919;42.648;23.384;2023-04-25T08:43:28;5.20;;;3.72;;
56051;SDS011;41919;42.648;23.384;2023-04-25T08:45:58;4.85;;;3.30;;
56051;SDS011;41919;42.648;23.384;2023-04-25T08:48:28;5.50;;;3.78;;
56051;SDS011;41919;42.648;23.384;2023-04-25T08:50:57;4.07;;;3.25;;
56051;SDS011;41919;42.648;23.384;2023-04-25T08:53:27;6.85;;;4.57;;
56051;SDS011;41919;42.648;23.384;2023-04-25T08:55:56;4.82;;;3.15;;
56051;SDS011;41919;42.648;23.384;2023-04-25T08:58:22;2.40;;;1.80;;
56051;SDS011;41919;42.648;23.384;2023-04-25T09:00:48;3.70;;;3.30;;
56051;SDS011;41919;42.648;23.384;2023-04-25T09:03:15;4.70;;;2.40;;
56051;SDS011;41919;42.648;23.384;2023-04-25T09:05:41;2.28;;;2.08;;
56051;SDS011;41919;42.648;23.384;2023-04-25T09:08:07;5.53;;;4.80;;
56051;SDS011;41919;42.648;23.384;2023-04-25T09:10:32;5.72;;;5.00;;
56051;SDS011;41919;42.648;23.384;2023-04-25T09:13:23;6.10;;;4.05;;
56051;SDS011;41919;42.648;23.384;2023-04-25T09:15:52;5.40;;;4.00;;
56051;SDS011;41919;42.648;23.384;2023-04-25T09:20:48;3.70;;;3.25;;
56051;SDS011;41919;42.648;23.384;2023-04-25T09:23:14;6.35;;;3.80;;
56051;SDS011;41919;42.648;23.384;2023-04-25T09:25:40;5.07;;;4.47;;
56051;SDS011;41919;42.648;23.384;2023-04-25T09:28:07;4.07;;;3.40;;
56051;SDS011;41919;42.648;23.384;2023-04-25T09:30:33;4.35;;;3.40;;
56051;SDS011;41919;42.648;23.384;2023-04-25T09:33:04;4.93;;;3.20;;
56051;SDS011;41919;42.648;23.384;2023-04-25T09:35:35;5.10;;;3.40;;
56051;SDS011;41919;42.648;23.384;2023-04-25T09:38:14;4.55;;;3.42;;
56051;SDS011;41919;42.648;23.384;2023-04-25T09:40:45;4.43;;;3.50;;
56051;SDS011;41919;42.648;23.384;2023-04-25T09:43:24;5.82;;;3.47;;
56051;SDS011;41919;42.648;23.384;2023-04-25T09:45:50;3.85;;;3.22;;
56051;SDS011;41919;42.648;23.384;2023-04-25T09:48:18;7.57;;;3.88;;
56051;SDS011;41919;42.648;23.384;2023-04-25T09:50:45;4.68;;;3.70;;
56051;SDS011;41919;42.648;23.384;2023-04-25T09:53:33;4.10;;;3.40;;
56051;SDS011;41919;42.648;23.384;2023-04-25T09:56:00;4.63;;;3.20;;
56051;SDS011;41919;42.648;23.384;2023-04-25T09:58:30;8.68;;;3.70;;
56051;SDS011;41919;42.648;23.384;2023-04-25T10:01:00;3.08;;;2.78;;
56051;SDS011;41919;42.648;23.384;2023-04-25T10:03:29;6.63;;;3.00;;
56051;SDS011;41919;42.648;23.384;2023-04-25T10:05:57;4.50;;;3.40;;
56051;SDS011;41919;42.648;23.384;2023-04-25T10:08:25;3.95;;;3.00;;
56051;SDS011;41919;42.648;23.384;2023-04-25T10:10:54;4.82;;;3.10;;
56051;SDS011;41919;42.648;23.384;2023-04-25T10:13:20;6.20;;;3.50;;
56051;SDS011;41919;42.648;23.384;2023-04-25T10:15:46;5.53;;;2.75;;
56051;SDS011;41919;42.648;23.384;2023-04-25T10:18:12;3.85;;;2.83;;
56051;SDS011;41919;42.648;23.384;2023-04-25T10:20:38;3.10;;;2.33;;
56051;SDS011;41919;42.648;23.384;2023-04-25T10:23:06;2.83;;;2.10;;
56051;SDS011;41919;42.648;23.384;2023-04-25T10:25:38;3.90;;;2.55;;
56051;SDS011;41919;42.648;23.384;2023-04-25T10:28:05;4.72;;;3.13;;
56051;SDS011;41919;42.648;23.384;2023-04-25T10:30:31;4.05;;;1.95;;
56051;SDS011;41919;42.648;23.384;2023-04-25T10:32:56;3.03;;;2.40;;
56051;SDS011;41919;42.648;23.384;2023-04-25T10:35:27;3.70;;;2.58;;
56051;SDS011;41919;42.648;23.384;2023-04-25T10:40:31;4.32;;;2.90;;
56051;SDS011;41919;42.648;23.384;2023-04-25T10:46:25;3.88;;;3.42;;
56051;SDS011;41919;42.648;23.384;2023-04-25T10:48:59;3.80;;;3.00;;
56051;SDS011;41919;42.648;23.384;2023-04-25T10:51:26;5.07;;;2.80;;
56051;SDS011;41919;42.648;23.384;2023-04-25T10:56:28;3.60;;;2.90;;
56051;SDS011;41919;42.648;23.384;2023-04-25T10:59:29;5.65;;;1.90;;
56051;SDS011;41919;42.648;23.384;2023-04-25T11:01:51;2.00;;;1.70;;
56051;SDS011;41919;42.648;23.384;2023-04-25T11:04:22;3.90;;;1.90;;
56051;SDS011;41919;42.648;23.384;2023-04-25T11:09:23;3.30;;;1.55;;
56051;SDS011;41919;42.648;23.384;2023-04-25T11:11:55;1.98;;;1.75;;
56051;SDS011;41919;42.648;23.384;2023-04-25T11:14:23;1.63;;;1.42;;
56051;SDS011;41919;42.648;23.384;2023-04-25T11:16:55;3.00;;;1.77;;
56051;SDS011;41919;42.648;23.384;2023-04-25T11:19:21;2.00;;;1.70;;
56051;SDS011;41919;42.648;23.384;2023-04-25T11:21:47;3.28;;;1.33;;
56051;SDS011;41919;42.648;23.384;2023-04-25T11:24:13;5.03;;;1.85;;
56051;SDS011;41919;42.648;23.384;2023-04-25T11:26:38;1.70;;;1.60;;
56051;SDS011;41919;42.648;23.384;2023-04-25T11:29:06;2.78;;;1.65;;
56051;SDS011;41919;42.648;23.384;2023-04-25T11:31:32;1.30;;;1.20;;
56051;SDS011;41919;42.648;23.384;2023-04-25T11:33:57;3.10;;;1.42;;
56051;SDS011;41919;42.648;23.384;2023-04-25T11:36:23;2.88;;;1.30;;
56051;SDS011;41919;42.648;23.384;2023-04-25T11:38:50;1.73;;;1.38;;
56051;SDS011;41919;42.648;23.384;2023-04-25T11:41:17;4.28;;;1.50;;
56051;SDS011;41919;42.648;23.384;2023-04-25T11:43:43;2.33;;;1.50;;
56051;SDS011;41919;42.648;23.384;2023-04-25T11:46:09;2.97;;;1.70;;
56051;SDS011;41919;42.648;23.384;2023-04-25T11:48:38;4.25;;;1.67;;
56051;SDS011;41919;42.648;23.384;2023-04-25T11:51:05;3.88;;;2.05;;
56051;SDS011;41919;42.648;23.384;2023-04-25T11:53:30;6.35;;;1.90;;
56051;SDS011;41919;42.648;23.384;2023-04-25T11:55:55;4.43;;;1.80;;
56051;SDS011;41919;42.648;23.384;2023-04-25T11:58:21;3.40;;;1.95;;
56051;SDS011;41919;42.648;23.384;2023-04-25T12:00:46;2.70;;;1.60;;
56051;SDS011;41919;42.648;23.384;2023-04-25T12:03:12;1.80;;;1.60;;
56051;SDS011;41919;42.648;23.384;2023-04-25T12:05:37;4.35;;;1.40;;
56051;SDS011;41919;42.648;23.384;2023-04-25T12:08:11;1.75;;;0.50;;
56051;SDS011;41919;42.648;23.384;2023-04-25T12:10:37;0.77;;;0.68;;
56051;SDS011;41919;42.648;23.384;2023-04-25T12:15:51;0.80;;;0.70;;
56051;SDS011;41919;42.648;23.384;2023-04-25T12:18:19;0.60;;;0.60;;
56051;SDS011;41919;42.648;23.384;2023-04-25T12:20:46;1.80;;;0.70;;
56051;SDS011;41919;42.648;23.384;2023-04-25T12:23:11;2.72;;;0.90;;
56051;SDS011;41919;42.648;23.384;2023-04-25T12:28:10;0.65;;;0.60;;
56051;SDS011;41919;42.648;23.384;2023-04-25T12:30:52;0.32;;;0.32;;
56051;SDS011;41919;42.648;23.384;2023-04-25T12:33:34;0.60;;;0.60;;
56051;SDS011;41919;42.648;23.384;2023-04-25T12:38:35;0.98;;;0.90;;
56051;SDS011;41919;42.648;23.384;2023-04-25T12:41:02;1.05;;;0.70;;
56051;SDS011;41919;42.648;23.384;2023-04-25T12:43:27;0.73;;;0.60;;
56051;SDS011;41919;42.648;23.384;2023-04-25T12:45:53;1.25;;;1.02;;
56051;SDS011;41919;42.648;23.384;2023-04-25T12:48:20;1.15;;;1.05;;
56051;SDS011;41919;42.648;23.384;2023-04-25T12:50:46;1.33;;;0.75;;
56051;SDS011;41919;42.648;23.384;2023-04-25T12:53:16;1.13;;;0.90;;
56051;SDS011;41919;42.648;23.384;2023-04-25T12:55:42;2.25;;;1.00;;
56051;SDS011;41919;42.648;23.384;2023-04-25T12:58:10;1.50;;;0.80;;
56051;SDS011;41919;42.648;23.384;2023-04-25T13:00:36;1.13;;;0.90;;
56051;SDS011;41919;42.648;23.384;2023-04-25T13:03:02;3.60;;;0.90;;
56051;SDS011;41919;42.648;23.384;2023-04-25T13:05:28;0.90;;;0.60;;
56051;SDS011;41919;42.648;23.384;2023-04-25T13:07:55;0.60;;;0.60;;
56051;SDS011;41919;42.648;23.384;2023-04-25T13:10:20;6.13;;;1.40;;
56051;SDS011;41919;42.648;23.384;2023-04-25T13:12:46;2.83;;;1.20;;
56051;SDS011;41919;42.648;23.384;2023-04-25T13:15:11;0.88;;;0.80;;
56051;SDS011;41919;42.648;23.384;2023-04-25T13:17:37;2.63;;;0.90;;
56051;SDS011;41919;42.648;23.384;2023-04-25T13:20:06;1.13;;;1.00;;
56051;SDS011;41919;42.648;23.384;2023-04-25T13:22:34;1.33;;;0.88;;
56051;SDS011;41919;42.648;23.384;2023-04-25T13:25:03;2.28;;;1.10;;
56051;SDS011;41919;42.648;23.384;2023-04-25T13:27:30;5.65;;;1.55;;
56051;SDS011;41919;42.648;23.384;2023-04-25T13:29:57;3.67;;;2.45;;
56051;SDS011;41919;42.648;23.384;2023-04-25T13:32:23;2.45;;;1.30;;
56051;SDS011;41919;42.648;23.384;2023-04-25T13:34:49;2.08;;;1.00;;
56051;SDS011;41919;42.648;23.384;2023-04-25T13:37:16;2.72;;;1.10;;
56051;SDS011;41919;42.648;23.384;2023-04-25T13:39:41;0.90;;;0.80;;
56051;SDS011;41919;42.648;23.384;2023-04-25T13:42:06;2.20;;;1.20;;
56051;SDS011;41919;42.648;23.384;2023-04-25T13:44:32;4.07;;;1.30;;
56051;SDS011;41919;42.648;23.384;2023-04-25T13:46:57;1.98;;;1.00;;
56051;SDS011;41919;42.648;23.384;2023-04-25T13:49:23;3.33;;;1.50;;
56051;SDS011;41919;42.648;23.384;2023-04-25T13:51:48;1.70;;;1.42;;
56051;SDS011;41919;42.648;23.384;2023-04-25T13:54:13;3.28;;;1.60;;
56051;SDS011;41919;42.648;23.384;2023-04-25T13:56:40;3.22;;;1.65;;
56051;SDS011;41919;42.648;23.384;2023-04-25T13:59:07;5.90;;;1.75;;
56051;SDS011;41919;42.648;23.384;2023-04-25T14:01:32;1.77;;;1.35;;
56051;SDS011;41919;42.648;23.384;2023-04-25T14:04:00;1.63;;;1.00;;
56051;SDS011;41919;42.648;23.384;2023-04-25T14:06:26;1.75;;;1.20;;
56051;SDS011;41919;42.648;23.384;2023-04-25T14:08:52;4.00;;;1.20;;
56051;SDS011;41919;42.648;23.384;2023-04-25T14:11:18;1.73;;;1.15;;
56051;SDS011;41919;42.648;23.384;2023-04-25T14:13:44;1.13;;;1.00;;
56051;SDS011;41919;42.648;23.384;2023-04-25T14:16:10;1.48;;;0.90;;
56051;SDS011;41919;42.648;23.384;2023-04-25T14:18:35;0.95;;;0.95;;
56051;SDS011;41919;42.648;23.384;2023-04-25T14:21:01;1.52;;;1.10;;
56051;SDS011;41919;42.648;23.384;2023-04-25T14:23:26;0.70;;;0.70;;
56051;SDS011;41919;42.648;23.384;2023-04-25T14:25:52;0.80;;;0.80;;
56051;SDS011;41919;42.648;23.384;2023-04-25T14:28:17;0.77;;;0.73;;
56051;SDS011;41919;42.648;23.384;2023-04-25T14:30:43;1.63;;;0.50;;
56051;SDS011;41919;42.648;23.384;2023-04-25T14:33:08;1.02;;;0.70;;
56051;SDS011;41919;42.648;23.384;2023-04-25T14:35:34;1.13;;;0.68;;
56051;SDS011;41919;42.648;23.384;2023-04-25T14:38:00;0.70;;;0.70;;
56051;SDS011;41919;42.648;23.384;2023-04-25T14:40:26;1.48;;;0.70;;
56051;SDS011;41919;42.648;23.384;2023-04-25T14:42:51;1.67;;;0.82;;
56051;SDS011;41919;42.648;23.384;2023-04-25T14:45:17;2.92;;;1.10;;
56051;SDS011;41919;42.648;23.384;2023-04-25T14:47:42;1.20;;;1.10;;
56051;SDS011;41919;42.648;23.384;2023-04-25T14:50:08;2.42;;;1.27;;